createdAt,value
2019-02-09T00:01:49.672Z,4.40
2019-02-09T00:04:19.498Z,4.40
2019-02-09T00:06:49.321Z,4.40
2019-02-09T00:09:19.382Z,4.40
2019-02-09T00:11:49.200Z,4.40
2019-02-09T00:14:19.022Z,4.40
2019-02-09T00:16:48.945Z,4.50
2019-02-09T00:19:18.781Z,4.50
2019-02-09T00:21:48.617Z,4.50
2019-02-09T00:24:18.473Z,4.50
2019-02-09T00:26:48.378Z,4.50
2019-02-09T00:29:18.200Z,4.50
2019-02-09T00:31:48.024Z,4.50
2019-02-09T00:34:18.550Z,4.50
2019-02-09T00:36:48.375Z,4.50
2019-02-09T00:39:18.213Z,4.50
2019-02-09T00:41:48.441Z,4.50
2019-02-09T00:44:18.253Z,4.50
2019-02-09T00:46:48.130Z,4.40
2019-02-09T00:49:17.985Z,4.40
2019-02-09T00:51:47.884Z,4.40
2019-02-09T00:54:17.876Z,4.40
2019-02-09T00:56:47.650Z,4.30
2019-02-09T00:59:18.429Z,4.30
2019-02-09T01:01:48.346Z,4.30
2019-02-09T01:04:18.225Z,4.30
2019-02-09T01:06:48.009Z,4.30
2019-02-09T01:09:17.882Z,4.20
2019-02-09T01:11:47.825Z,4.20
2019-02-09T01:14:17.645Z,4.20
2019-02-09T01:16:47.413Z,4.20
2019-02-09T01:19:17.286Z,4.10
2019-02-09T01:21:47.255Z,4.10
2019-02-09T01:24:17.201Z,4.10
2019-02-09T01:26:46.973Z,4.00
2019-02-09T01:29:16.865Z,4.00
2019-02-09T01:31:46.744Z,4.00
2019-02-09T01:34:16.662Z,3.90
2019-02-09T01:36:46.428Z,3.90
2019-02-09T01:39:16.244Z,3.90
2019-02-09T01:41:46.777Z,3.90
2019-02-09T01:44:16.671Z,3.80
2019-02-09T01:46:46.497Z,3.80
2019-02-09T01:49:16.312Z,3.80
2019-02-09T01:51:46.212Z,3.80
2019-02-09T01:54:16.851Z,3.80
2019-02-09T01:56:46.821Z,3.80
2019-02-09T01:59:16.605Z,3.70
2019-02-09T02:01:46.513Z,3.70
2019-02-09T02:04:17.113Z,3.70
2019-02-09T02:06:46.930Z,3.70
2019-02-09T02:09:17.505Z,3.70
2019-02-09T02:11:47.342Z,3.70
2019-02-09T02:14:17.166Z,3.60
2019-02-09T02:16:47.064Z,3.60
2019-02-09T02:19:17.161Z,3.60
2019-02-09T02:21:46.986Z,3.60
2019-02-09T02:24:16.760Z,3.60
2019-02-09T02:26:46.574Z,3.60
2019-02-09T02:29:16.738Z,3.50
2019-02-09T02:31:47.518Z,3.50
2019-02-09T02:34:17.289Z,3.50
2019-02-09T02:36:47.241Z,3.50
2019-02-09T02:39:17.066Z,3.50
2019-02-09T02:41:46.842Z,3.50
2019-02-09T02:44:16.662Z,3.50
2019-02-09T02:46:46.541Z,3.50
2019-02-09T02:49:16.322Z,3.50
2019-02-09T02:51:46.101Z,3.60
2019-02-09T02:54:15.921Z,3.60
2019-02-09T02:56:45.805Z,3.70
2019-02-09T02:59:15.580Z,3.70
2019-02-09T03:01:45.402Z,3.70
2019-02-09T03:04:15.482Z,3.80
2019-02-09T03:06:45.306Z,3.80
2019-02-09T03:09:15.085Z,3.90
2019-02-09T03:11:44.909Z,4.00
2019-02-09T03:14:14.692Z,4.00
2019-02-09T03:16:44.545Z,4.10
2019-02-09T03:19:14.384Z,4.10
2019-02-09T03:21:44.433Z,4.20
2019-02-09T03:24:14.210Z,4.20
2019-02-09T03:26:44.243Z,4.30
2019-02-09T03:29:14.012Z,4.30
2019-02-09T03:31:43.795Z,4.30
2019-02-09T03:34:13.621Z,4.40
2019-02-09T03:36:43.449Z,4.40
2019-02-09T03:39:13.239Z,4.40
2019-02-09T03:41:43.262Z,4.50
2019-02-09T03:44:13.157Z,4.50
2019-02-09T03:46:42.936Z,4.50
2019-02-09T03:49:12.763Z,4.50
2019-02-09T03:51:42.669Z,4.50
2019-02-09T03:54:12.549Z,4.60
2019-02-09T03:56:42.317Z,4.70
2019-02-09T03:59:12.093Z,4.70
2019-02-09T04:01:41.969Z,4.80
2019-02-09T04:04:11.751Z,4.80
2019-02-09T04:06:41.521Z,4.90
2019-02-09T04:09:11.374Z,5.00
2019-02-09T04:11:41.289Z,5.00
2019-02-09T04:14:11.270Z,5.00
2019-02-09T04:16:41.957Z,5.10
2019-02-09T04:19:11.741Z,5.10
2019-02-09T04:21:41.563Z,5.20
2019-02-09T04:24:11.354Z,5.20
2019-02-09T04:26:41.145Z,5.20
2019-02-09T04:29:10.913Z,5.20
2019-02-09T04:31:40.852Z,5.20
2019-02-09T04:34:10.820Z,5.20
2019-02-09T04:36:40.683Z,5.20
2019-02-09T04:39:10.448Z,5.20
2019-02-09T04:41:40.257Z,5.20
2019-02-09T04:44:10.028Z,5.20
2019-02-09T04:46:40.806Z,5.20
2019-02-09T04:49:10.673Z,5.30
2019-02-09T04:51:40.447Z,5.30
2019-02-09T04:54:11.018Z,5.30
2019-02-09T04:56:40.923Z,5.40
2019-02-09T04:59:10.685Z,5.40
2019-02-09T05:01:40.623Z,5.50
2019-02-09T05:04:10.485Z,5.50
2019-02-09T05:06:40.320Z,5.50
2019-02-09T05:09:10.099Z,5.60
2019-02-09T05:11:40.003Z,5.60
2019-02-09T05:14:09.761Z,5.60
2019-02-09T05:16:39.737Z,5.70
2019-02-09T05:19:09.598Z,5.70
2019-02-09T05:21:39.364Z,5.70
2019-02-09T05:24:09.172Z,5.70
2019-02-09T05:26:38.961Z,5.70
2019-02-09T05:29:08.757Z,5.70
2019-02-09T05:31:38.521Z,5.70
2019-02-09T05:34:08.298Z,5.60
2019-02-09T05:36:38.241Z,5.70
2019-02-09T05:39:08.241Z,5.60
2019-02-09T05:41:38.217Z,5.60
2019-02-09T05:44:07.987Z,5.60
2019-02-09T05:46:37.822Z,5.60
2019-02-09T05:49:07.877Z,5.60
2019-02-09T05:51:37.644Z,5.70
2019-02-09T05:54:07.408Z,5.70
2019-02-09T05:56:37.382Z,5.70
2019-02-09T05:59:07.640Z,5.60
2019-02-09T06:01:37.469Z,5.60
2019-02-09T06:04:07.237Z,5.60
2019-02-09T06:06:37.133Z,5.60
2019-02-09T06:09:08.252Z,5.60
2019-02-09T06:11:38.034Z,5.60
2019-02-09T06:14:07.941Z,5.60
2019-02-09T06:16:37.814Z,5.60
2019-02-09T06:19:07.584Z,5.60
2019-02-09T06:21:37.398Z,5.60
2019-02-09T06:24:07.512Z,5.70
2019-02-09T06:26:37.970Z,5.70
2019-02-09T06:29:08.477Z,5.70
2019-02-09T06:31:41.003Z,5.70
2019-02-09T06:34:09.733Z,5.70
2019-02-09T06:36:39.542Z,5.70
2019-02-09T06:39:09.814Z,5.70
2019-02-09T06:41:39.611Z,5.70
2019-02-09T06:44:09.470Z,5.80
2019-02-09T06:46:39.285Z,5.80
2019-02-09T06:49:09.062Z,5.80
2019-02-09T06:51:38.813Z,5.80
2019-02-09T06:54:08.715Z,5.90
2019-02-09T06:56:39.252Z,5.90
2019-02-09T06:59:09.056Z,5.90
2019-02-09T07:01:38.852Z,5.90
2019-02-09T07:04:08.700Z,5.90
2019-02-09T07:06:38.609Z,5.90
2019-02-09T07:09:08.512Z,5.90
2019-02-09T07:11:38.344Z,5.90
2019-02-09T07:14:08.556Z,6.00
2019-02-09T07:16:38.318Z,6.10
2019-02-09T07:19:08.076Z,6.20
2019-02-09T07:21:37.880Z,6.20
2019-02-09T07:24:07.977Z,6.40
2019-02-09T07:26:37.758Z,6.40
2019-02-09T07:29:07.580Z,6.50
2019-02-09T07:31:37.418Z,6.60
2019-02-09T07:34:07.177Z,6.70
2019-02-09T07:36:37.075Z,6.80
2019-02-09T07:39:09.042Z,6.80
2019-02-09T07:41:38.812Z,6.90
2019-02-09T07:44:09.770Z,7.00
2019-02-09T07:46:39.529Z,7.00
2019-02-09T07:49:09.298Z,7.10
2019-02-09T07:51:39.205Z,7.10
2019-02-09T07:54:09.097Z,7.10
2019-02-09T07:56:38.964Z,7.20
2019-02-09T07:59:08.858Z,7.20
2019-02-09T08:01:38.703Z,7.20
2019-02-09T08:04:08.471Z,7.30
2019-02-09T08:06:38.232Z,7.30
2019-02-09T08:09:10.994Z,7.40
2019-02-09T08:11:40.865Z,7.40
2019-02-09T08:14:10.849Z,7.50
2019-02-09T08:16:40.784Z,7.50
2019-02-09T08:19:10.582Z,7.50
2019-02-09T08:21:40.350Z,7.60
2019-02-09T08:24:10.115Z,7.60
2019-02-09T08:26:39.921Z,7.60
2019-02-09T08:29:09.940Z,7.70
2019-02-09T08:31:39.821Z,7.70
2019-02-09T08:34:09.921Z,7.80
2019-02-09T08:36:39.896Z,7.80
2019-02-09T08:39:09.734Z,7.90
2019-02-09T08:41:39.502Z,7.90
2019-02-09T08:44:09.515Z,7.90
2019-02-09T08:46:39.280Z,7.90
2019-02-09T08:49:09.048Z,7.90
2019-02-09T08:51:39.032Z,8.00
2019-02-09T08:54:08.895Z,8.10
2019-02-09T08:56:39.809Z,8.10
2019-02-09T08:59:10.365Z,8.20
2019-02-09T09:01:40.225Z,8.20
2019-02-09T09:04:10.049Z,8.20
2019-02-09T09:06:39.936Z,8.20
2019-02-09T09:09:10.266Z,8.30
2019-02-09T09:11:40.077Z,8.30
2019-02-09T09:14:09.919Z,8.30
2019-02-09T09:16:39.726Z,8.40
2019-02-09T09:19:09.606Z,8.50
2019-02-09T09:21:39.381Z,8.60
2019-02-09T09:24:09.144Z,8.70
2019-02-09T09:26:38.958Z,8.80
2019-02-09T09:29:08.922Z,8.90
2019-02-09T09:31:39.074Z,9.10
2019-02-09T09:34:08.905Z,9.20
2019-02-09T09:36:38.869Z,9.40
2019-02-09T09:39:09.096Z,9.50
2019-02-09T09:41:38.867Z,9.70
2019-02-09T09:44:09.191Z,9.80
2019-02-09T09:46:38.949Z,10.00
2019-02-09T09:49:08.773Z,10.10
2019-02-09T09:51:38.584Z,10.20
2019-02-09T09:54:08.714Z,10.20
2019-02-09T09:56:38.625Z,10.30
2019-02-09T09:59:09.280Z,10.30
2019-02-09T10:01:39.080Z,10.30
2019-02-09T10:04:08.978Z,10.30
2019-02-09T10:06:38.808Z,10.30
2019-02-09T10:09:08.653Z,10.30
2019-02-09T10:11:38.507Z,10.30
2019-02-09T10:14:09.184Z,10.30
2019-02-09T10:16:39.248Z,10.40
2019-02-09T10:19:09.172Z,10.40
2019-02-09T10:21:38.980Z,10.40
2019-02-09T10:24:08.914Z,10.40
2019-02-09T10:26:38.688Z,10.40
2019-02-09T10:29:08.470Z,10.40
2019-02-09T10:31:38.316Z,10.40
2019-02-09T10:34:08.080Z,10.40
2019-02-09T10:36:37.869Z,10.40
2019-02-09T10:39:08.638Z,10.50
2019-02-09T10:41:38.583Z,10.50
2019-02-09T10:44:08.500Z,10.60
2019-02-09T10:46:38.269Z,10.60
2019-02-09T10:49:08.106Z,10.70
2019-02-09T10:51:38.026Z,10.80
2019-02-09T10:54:08.010Z,10.90
2019-02-09T10:56:37.989Z,11.00
2019-02-09T10:59:07.852Z,11.10
2019-02-09T11:01:38.075Z,11.20
2019-02-09T11:04:08.372Z,11.20
2019-02-09T11:06:38.207Z,11.20
2019-02-09T11:09:11.101Z,11.20
2019-02-09T11:11:40.893Z,11.20
2019-02-09T11:14:10.723Z,11.10
2019-02-09T11:16:40.609Z,11.10
2019-02-09T11:19:10.551Z,11.10
2019-02-09T11:21:40.366Z,11.00
2019-02-09T11:24:10.198Z,11.00
2019-02-09T11:26:40.001Z,11.00
2019-02-09T11:29:09.936Z,11.00
2019-02-09T11:31:39.809Z,11.10
2019-02-09T11:34:09.592Z,11.10
2019-02-09T11:36:39.410Z,11.10
2019-02-09T11:39:09.294Z,11.20
2019-02-09T11:41:39.188Z,11.30
2019-02-09T11:44:08.962Z,11.30
2019-02-09T11:46:38.851Z,11.50
2019-02-09T11:49:08.850Z,11.60
2019-02-09T11:51:38.631Z,11.70
2019-02-09T11:54:08.464Z,11.70
2019-02-09T11:56:38.282Z,11.70
2019-02-09T11:59:08.182Z,11.80
2019-02-09T12:01:38.713Z,11.80
2019-02-09T12:04:08.553Z,11.80
2019-02-09T12:06:38.372Z,11.80
2019-02-09T12:09:09.390Z,11.70
2019-02-09T12:11:39.248Z,11.70
2019-02-09T12:14:10.024Z,11.60
2019-02-09T12:16:40.010Z,11.60
2019-02-09T12:19:09.910Z,11.50
2019-02-09T12:21:39.778Z,11.50
2019-02-09T12:24:09.616Z,11.50
2019-02-09T12:26:39.429Z,11.50
2019-02-09T12:29:09.329Z,11.50
2019-02-09T12:31:39.262Z,11.50
2019-02-09T12:34:09.073Z,11.50
2019-02-09T12:36:38.897Z,11.40
2019-02-09T12:39:09.609Z,11.50
2019-02-09T12:41:39.430Z,11.50
2019-02-09T12:44:09.250Z,11.60
2019-02-09T12:46:39.318Z,11.50
2019-02-09T12:49:09.155Z,11.60
2019-02-09T12:51:39.064Z,11.60
2019-02-09T12:54:09.605Z,11.70
2019-02-09T12:56:39.463Z,11.70
2019-02-09T12:59:14.721Z,11.70
2019-02-09T13:01:40.834Z,11.70
2019-02-09T13:04:10.605Z,11.80
2019-02-09T13:06:40.441Z,11.80
2019-02-09T13:09:10.476Z,11.80
2019-02-09T13:11:40.253Z,11.80
2019-02-09T13:14:10.031Z,11.80
2019-02-09T13:16:39.990Z,11.80
2019-02-09T13:19:09.788Z,11.90
2019-02-09T13:21:39.701Z,12.00
2019-02-09T13:24:10.325Z,12.00
2019-02-09T13:26:40.140Z,12.00
2019-02-09T13:29:09.917Z,12.00
2019-02-09T13:31:39.689Z,12.00
2019-02-09T13:34:10.274Z,11.90
2019-02-09T13:36:40.082Z,11.90
2019-02-09T13:39:10.541Z,11.80
2019-02-09T13:41:40.505Z,11.70
2019-02-09T13:44:10.284Z,11.70
2019-02-09T13:46:40.114Z,11.70
2019-02-09T13:49:09.942Z,11.70
2019-02-09T13:51:39.741Z,11.60
2019-02-09T13:54:09.569Z,11.60
2019-02-09T13:56:39.633Z,11.60
2019-02-09T13:59:09.513Z,11.60
2019-02-09T14:01:39.320Z,11.60
2019-02-09T14:04:09.129Z,11.50
2019-02-09T14:06:38.907Z,11.50
2019-02-09T14:09:08.693Z,11.50
2019-02-09T14:11:39.765Z,11.40
2019-02-09T14:14:09.605Z,11.40
2019-02-09T14:16:39.450Z,11.40
2019-02-09T14:19:09.339Z,11.40
2019-02-09T14:21:39.386Z,11.40
2019-02-09T14:24:10.457Z,11.30
2019-02-09T14:26:40.456Z,11.30
2019-02-09T14:29:10.231Z,11.30
2019-02-09T14:31:40.053Z,11.30
2019-02-09T14:34:10.008Z,11.20
2019-02-09T14:36:39.776Z,11.20
2019-02-09T14:39:11.044Z,11.20
2019-02-09T14:41:40.939Z,11.20
2019-02-09T14:44:10.713Z,11.10
2019-02-09T14:46:40.609Z,11.10
2019-02-09T14:49:10.457Z,11.10
2019-02-09T14:51:40.281Z,11.10
2019-02-09T14:54:10.210Z,11.00
2019-02-09T14:56:40.044Z,11.00
2019-02-09T14:59:10.025Z,10.90
2019-02-09T15:01:41.428Z,10.90
2019-02-09T15:04:12.525Z,10.90
2019-02-09T15:06:42.341Z,10.90
2019-02-09T15:09:12.318Z,10.90
2019-02-09T15:11:42.132Z,10.90
2019-02-09T15:14:12.037Z,10.90
2019-02-09T15:16:42.013Z,10.90
2019-02-09T15:19:11.817Z,10.90
2019-02-09T15:21:41.798Z,10.90
2019-02-09T15:24:11.681Z,10.80
2019-02-09T15:26:41.465Z,10.70
2019-02-09T15:29:11.246Z,10.70
2019-02-09T15:31:41.370Z,10.60
2019-02-09T15:34:11.448Z,10.40
2019-02-09T15:36:42.434Z,10.40
2019-02-09T15:39:12.208Z,10.30
2019-02-09T15:41:42.021Z,10.20
2019-02-09T15:44:12.732Z,10.10
2019-02-09T15:46:42.640Z,10.00
2019-02-09T15:49:12.452Z,9.90
2019-02-09T15:51:42.270Z,9.80
2019-02-09T15:54:12.038Z,9.70
2019-02-09T15:56:41.798Z,9.60
2019-02-09T15:59:11.688Z,9.60
2019-02-09T16:01:41.667Z,9.50
2019-02-09T16:04:17.741Z,9.40
2019-02-09T16:06:43.100Z,9.30
2019-02-09T16:09:12.937Z,9.20
2019-02-09T16:11:42.746Z,9.20
2019-02-09T16:14:12.779Z,9.10
2019-02-09T16:16:42.584Z,9.00
2019-02-09T16:19:12.429Z,9.00
2019-02-09T16:21:42.258Z,8.90
2019-02-09T16:24:12.041Z,8.90
2019-02-09T16:26:41.883Z,8.90
2019-02-09T16:29:11.654Z,8.80
2019-02-09T16:31:41.525Z,8.80
2019-02-09T16:34:11.448Z,8.80
2019-02-09T16:36:41.314Z,8.80
2019-02-09T16:39:11.295Z,8.80
2019-02-09T16:41:41.049Z,8.80
2019-02-09T16:44:10.842Z,8.80
2019-02-09T16:46:40.706Z,8.70
2019-02-09T16:49:10.506Z,8.70
2019-02-09T16:51:40.502Z,8.70
2019-02-09T16:54:10.260Z,8.70
2019-02-09T16:56:40.030Z,8.70
2019-02-09T16:59:09.913Z,8.70
2019-02-09T17:01:39.723Z,8.70
2019-02-09T17:04:09.625Z,8.70
2019-02-09T17:06:39.406Z,8.70
2019-02-09T17:09:09.590Z,8.70
2019-02-09T17:11:39.477Z,8.70
2019-02-09T17:14:09.240Z,8.70
2019-02-09T17:16:39.301Z,8.70
2019-02-09T17:19:09.105Z,8.70
2019-02-09T17:21:38.909Z,8.70
2019-02-09T17:24:08.861Z,8.70
2019-02-09T17:26:38.642Z,8.60
2019-02-09T17:29:08.407Z,8.70
2019-02-09T17:31:38.323Z,8.60
2019-02-09T17:34:08.079Z,8.60
2019-02-09T17:36:37.850Z,8.50
2019-02-09T17:39:08.295Z,8.40
2019-02-09T17:41:38.177Z,8.40
2019-02-09T17:44:08.692Z,8.30
2019-02-09T17:46:38.477Z,8.30
2019-02-09T17:49:08.833Z,8.20
2019-02-09T17:51:38.662Z,8.20
2019-02-09T17:54:09.218Z,8.20
2019-02-09T17:56:39.087Z,8.10
2019-02-09T17:59:08.965Z,8.10
2019-02-09T18:01:38.785Z,8.10
2019-02-09T18:04:08.558Z,8.10
2019-02-09T18:06:38.316Z,8.10
2019-02-09T18:09:09.357Z,8.10
2019-02-09T18:11:39.245Z,8.10
2019-02-09T18:14:09.081Z,8.00
2019-02-09T18:16:38.851Z,8.00
2019-02-09T18:19:08.818Z,8.00
2019-02-09T18:21:38.704Z,7.90
2019-02-09T18:24:08.609Z,7.90
2019-02-09T18:26:39.058Z,7.90
2019-02-09T18:29:08.870Z,7.90
2019-02-09T18:31:38.835Z,7.90
2019-02-09T18:34:09.447Z,7.80
2019-02-09T18:36:39.311Z,7.80
2019-02-09T18:39:10.436Z,7.80
2019-02-09T18:41:40.204Z,7.80
2019-02-09T18:44:10.160Z,7.80
2019-02-09T18:46:40.332Z,7.80
2019-02-09T18:49:10.169Z,7.80
2019-02-09T18:51:39.938Z,7.80
2019-02-09T18:54:09.900Z,7.80
2019-02-09T18:56:39.814Z,7.80
2019-02-09T18:59:09.575Z,7.80
2019-02-09T19:01:39.370Z,7.80
2019-02-09T19:04:09.293Z,7.80
2019-02-09T19:06:39.384Z,7.80
2019-02-09T19:09:09.566Z,7.80
2019-02-09T19:11:39.385Z,7.80
2019-02-09T19:14:09.945Z,7.80
2019-02-09T19:16:40.001Z,7.70
2019-02-09T19:19:09.893Z,7.80
2019-02-09T19:21:39.665Z,7.70
2019-02-09T19:24:09.590Z,7.70
2019-02-09T19:26:39.389Z,7.70
2019-02-09T19:29:09.160Z,7.70
2019-02-09T19:31:39.024Z,7.70
2019-02-09T19:34:09.953Z,7.70
2019-02-09T19:36:39.756Z,7.70
2019-02-09T19:39:10.202Z,7.70
2019-02-09T19:41:40.002Z,7.70
2019-02-09T19:44:09.792Z,7.70
2019-02-09T19:46:39.725Z,7.80
2019-02-09T19:49:09.479Z,7.80
2019-02-09T19:51:39.232Z,7.80
2019-02-09T19:54:09.177Z,7.90
2019-02-09T19:56:40.010Z,7.90
2019-02-09T19:59:09.810Z,7.90
2019-02-09T20:01:39.568Z,7.90
2019-02-09T20:04:09.374Z,7.90
2019-02-09T20:06:39.374Z,8.00
2019-02-09T20:09:09.549Z,8.10
2019-02-09T20:11:39.327Z,8.10
2019-02-09T20:14:09.148Z,8.10
2019-02-09T20:16:39.052Z,8.10
2019-02-09T20:19:08.853Z,8.10
2019-02-09T20:21:38.630Z,8.10
2019-02-09T20:24:08.389Z,8.10
2019-02-09T20:26:38.205Z,8.00
2019-02-09T20:29:08.086Z,8.00
2019-02-09T20:31:37.882Z,7.90
2019-02-09T20:34:07.781Z,8.00
2019-02-09T20:36:37.784Z,7.90
2019-02-09T20:39:08.409Z,7.90
2019-02-09T20:41:38.250Z,7.90
2019-02-09T20:44:08.282Z,7.90
2019-02-09T20:46:38.057Z,7.80
2019-02-09T20:49:07.846Z,7.80
2019-02-09T20:51:37.637Z,7.80
2019-02-09T20:54:07.450Z,7.80
2019-02-09T20:56:37.213Z,7.70
2019-02-09T20:59:07.246Z,7.70
2019-02-09T21:01:37.073Z,7.70
2019-02-09T21:04:08.122Z,7.60
2019-02-09T21:06:37.939Z,7.60
2019-02-09T21:09:08.322Z,7.60
2019-02-09T21:11:38.108Z,7.50
2019-02-09T21:14:07.878Z,7.50
2019-02-09T21:16:37.646Z,7.50
2019-02-09T21:19:07.602Z,7.50
2019-02-09T21:21:37.605Z,7.50
2019-02-09T21:24:07.447Z,7.50
2019-02-09T21:26:37.229Z,7.40
2019-02-09T21:29:07.194Z,7.40
2019-02-09T21:31:37.074Z,7.40
2019-02-09T21:34:06.859Z,7.40
2019-02-09T21:36:36.858Z,7.50
2019-02-09T21:39:08.053Z,7.50
2019-02-09T21:41:37.930Z,7.50
2019-02-09T21:44:07.840Z,7.50
2019-02-09T21:46:37.601Z,7.50
2019-02-09T21:49:07.876Z,7.50
2019-02-09T21:51:37.638Z,7.50
2019-02-09T21:54:07.413Z,7.50
2019-02-09T21:56:37.511Z,7.40
2019-02-09T21:59:07.273Z,7.50
2019-02-09T22:01:37.085Z,7.50
2019-02-09T22:04:06.919Z,7.50
2019-02-09T22:06:36.680Z,7.50
2019-02-09T22:09:07.921Z,7.50
2019-02-09T22:11:37.996Z,7.50
2019-02-09T22:14:08.508Z,7.50
2019-02-09T22:16:38.357Z,7.50
2019-02-09T22:19:08.203Z,7.50
2019-02-09T22:21:38.113Z,7.50
2019-02-09T22:24:07.941Z,7.50
2019-02-09T22:26:38.545Z,7.50
2019-02-09T22:29:08.402Z,7.50
2019-02-09T22:31:38.448Z,7.60
2019-02-09T22:34:08.389Z,7.60
2019-02-09T22:36:38.179Z,7.60
2019-02-09T22:39:09.081Z,7.60
2019-02-09T22:41:38.897Z,7.60
2019-02-09T22:44:08.660Z,7.60
2019-02-09T22:46:38.506Z,7.60
2019-02-09T22:49:08.374Z,7.60
2019-02-09T22:51:38.562Z,7.60
2019-02-09T22:54:08.700Z,7.60
2019-02-09T22:56:38.515Z,7.60
2019-02-09T22:59:08.344Z,7.60
2019-02-09T23:01:41.345Z,7.60
2019-02-09T23:04:14.213Z,7.60
2019-02-09T23:06:56.036Z,7.60
2019-02-09T23:09:25.868Z,7.60
2019-02-09T23:11:55.647Z,7.60
2019-02-09T23:14:25.649Z,7.60
2019-02-09T23:16:55.500Z,7.50
2019-02-09T23:19:25.305Z,7.50
2019-02-09T23:21:55.218Z,7.50
2019-02-09T23:24:26.083Z,7.50
2019-02-09T23:26:55.928Z,7.50
2019-02-09T23:29:25.737Z,7.40
2019-02-09T23:31:55.552Z,7.40
2019-02-09T23:34:25.514Z,7.30
2019-02-09T23:36:55.278Z,7.30
2019-02-09T23:39:25.178Z,7.30
2019-02-09T23:41:54.981Z,7.20
2019-02-09T23:44:24.795Z,7.20
2019-02-09T23:46:54.642Z,7.10
2019-02-09T23:49:24.446Z,7.10
2019-02-09T23:51:54.337Z,7.10
2019-02-09T23:54:24.108Z,7.10
2019-02-09T23:56:54.091Z,7.10
2019-02-09T23:59:23.942Z,7.00
